sensor_id;sensor_type;location;lat;lon;timestamp;P1;durP1;ratioP1;P2;durP2;ratioP2
55067;SDS011;40965;52.368;9.712;2023-06-22T00:19:46;12.40;;;11.30;;
55067;SDS011;40965;52.368;9.712;2023-06-22T00:22:18;12.35;;;11.25;;
55067;SDS011;40965;52.368;9.712;2023-06-22T00:24:53;13.93;;;12.55;;
55067;SDS011;40965;52.368;9.712;2023-06-22T00:27:20;12.30;;;11.20;;
55067;SDS011;40965;52.368;9.712;2023-06-22T00:29:47;16.48;;;14.52;;
55067;SDS011;40965;52.368;9.712;2023-06-22T00:32:13;15.30;;;13.70;;
55067;SDS011;40965;52.368;9.712;2023-06-22T00:34:41;15.60;;;13.98;;
55067;SDS011;40965;52.368;9.712;2023-06-22T00:37:07;16.17;;;14.57;;
55067;SDS011;40965;52.368;9.712;2023-06-22T00:39:34;18.70;;;15.93;;
55067;SDS011;40965;52.368;9.712;2023-06-22T00:42:00;16.23;;;13.30;;
55067;SDS011;40965;52.368;9.712;2023-06-22T00:44:27;16.98;;;15.18;;
55067;SDS011;40965;52.368;9.712;2023-06-22T00:46:53;15.57;;;13.95;;
55067;SDS011;40965;52.368;9.712;2023-06-22T00:49:20;15.43;;;13.65;;
55067;SDS011;40965;52.368;9.712;2023-06-22T00:51:47;15.93;;;14.38;;
55067;SDS011;40965;52.368;9.712;2023-06-22T00:54:14;15.85;;;14.27;;
55067;SDS011;40965;52.368;9.712;2023-06-22T00:56:40;16.25;;;14.75;;
55067;SDS011;40965;52.368;9.712;2023-06-22T00:59:07;16.30;;;14.10;;
55067;SDS011;40965;52.368;9.712;2023-06-22T01:01:37;14.13;;;12.82;;
55067;SDS011;40965;52.368;9.712;2023-06-22T01:04:06;14.73;;;13.32;;
55067;SDS011;40965;52.368;9.712;2023-06-22T01:06:35;18.35;;;13.85;;
55067;SDS011;40965;52.368;9.712;2023-06-22T01:09:12;14.18;;;12.88;;
55067;SDS011;40965;52.368;9.712;2023-06-22T01:11:43;14.23;;;12.60;;
55067;SDS011;40965;52.368;9.712;2023-06-22T01:14:21;13.50;;;12.30;;
55067;SDS011;40965;52.368;9.712;2023-06-22T01:16:54;13.63;;;12.32;;
55067;SDS011;40965;52.368;9.712;2023-06-22T01:19:34;14.20;;;12.80;;
55067;SDS011;40965;52.368;9.712;2023-06-22T01:22:24;13.23;;;11.95;;
55067;SDS011;40965;52.368;9.712;2023-06-22T01:25:19;13.27;;;12.00;;
55067;SDS011;40965;52.368;9.712;2023-06-22T01:27:50;12.80;;;11.65;;
55067;SDS011;40965;52.368;9.712;2023-06-22T01:30:32;13.45;;;11.52;;
55067;SDS011;40965;52.368;9.712;2023-06-22T01:33:00;12.80;;;11.48;;
55067;SDS011;40965;52.368;9.712;2023-06-22T01:35:31;13.57;;;12.07;;
55067;SDS011;40965;52.368;9.712;2023-06-22T01:37:58;11.93;;;10.90;;
55067;SDS011;40965;52.368;9.712;2023-06-22T01:40:25;12.75;;;11.55;;
55067;SDS011;40965;52.368;9.712;2023-06-22T01:42:52;13.02;;;11.73;;
55067;SDS011;40965;52.368;9.712;2023-06-22T01:45:19;12.57;;;11.30;;
55067;SDS011;40965;52.368;9.712;2023-06-22T01:47:46;13.30;;;12.00;;
55067;SDS011;40965;52.368;9.712;2023-06-22T01:50:13;11.68;;;10.52;;
55067;SDS011;40965;52.368;9.712;2023-06-22T01:52:40;11.75;;;10.65;;
55067;SDS011;40965;52.368;9.712;2023-06-22T01:55:07;13.10;;;11.90;;
55067;SDS011;40965;52.368;9.712;2023-06-22T01:57:34;12.68;;;11.50;;
55067;SDS011;40965;52.368;9.712;2023-06-22T02:00:04;14.40;;;11.75;;
55067;SDS011;40965;52.368;9.712;2023-06-22T02:02:53;13.07;;;11.85;;
55067;SDS011;40965;52.368;9.712;2023-06-22T02:05:28;11.98;;;10.85;;
55067;SDS011;40965;52.368;9.712;2023-06-22T02:08:08;12.27;;;10.82;;
55067;SDS011;40965;52.368;9.712;2023-06-22T02:10:41;11.48;;;10.43;;
55067;SDS011;40965;52.368;9.712;2023-06-22T02:13:10;11.30;;;10.18;;
55067;SDS011;40965;52.368;9.712;2023-06-22T02:15:37;12.73;;;10.93;;
55067;SDS011;40965;52.368;9.712;2023-06-22T02:18:04;11.38;;;10.27;;
55067;SDS011;40965;52.368;9.712;2023-06-22T02:20:31;10.48;;;9.48;;
55067;SDS011;40965;52.368;9.712;2023-06-22T02:22:58;12.68;;;9.75;;
55067;SDS011;40965;52.368;9.712;2023-06-22T02:25:24;11.40;;;10.23;;
55067;SDS011;40965;52.368;9.712;2023-06-22T02:27:51;10.55;;;9.68;;
55067;SDS011;40965;52.368;9.712;2023-06-22T02:30:18;11.77;;;10.25;;
55067;SDS011;40965;52.368;9.712;2023-06-22T02:32:44;11.57;;;10.07;;
55067;SDS011;40965;52.368;9.712;2023-06-22T02:35:10;12.63;;;11.30;;
55067;SDS011;40965;52.368;9.712;2023-06-22T02:37:38;10.88;;;9.75;;
55067;SDS011;40965;52.368;9.712;2023-06-22T02:40:08;14.95;;;10.48;;
55067;SDS011;40965;52.368;9.712;2023-06-22T02:42:35;11.40;;;10.27;;
55067;SDS011;40965;52.368;9.712;2023-06-22T02:45:05;11.95;;;10.73;;
55067;SDS011;40965;52.368;9.712;2023-06-22T02:47:32;11.15;;;10.10;;
55067;SDS011;40965;52.368;9.712;2023-06-22T02:49:58;11.38;;;10.15;;
55067;SDS011;40965;52.368;9.712;2023-06-22T02:52:25;10.63;;;9.63;;
55067;SDS011;40965;52.368;9.712;2023-06-22T02:54:52;11.30;;;10.15;;
55067;SDS011;40965;52.368;9.712;2023-06-22T02:57:18;10.57;;;9.45;;
55067;SDS011;40965;52.368;9.712;2023-06-22T02:59:45;11.65;;;10.55;;
55067;SDS011;40965;52.368;9.712;2023-06-22T03:02:11;11.15;;;10.05;;
55067;SDS011;40965;52.368;9.712;2023-06-22T03:04:38;11.57;;;10.48;;
55067;SDS011;40965;52.368;9.712;2023-06-22T03:07:04;11.77;;;10.30;;
55067;SDS011;40965;52.368;9.712;2023-06-22T03:09:31;11.77;;;10.60;;
55067;SDS011;40965;52.368;9.712;2023-06-22T03:11:57;12.05;;;10.30;;
55067;SDS011;40965;52.368;9.712;2023-06-22T03:14:24;10.25;;;9.25;;
55067;SDS011;40965;52.368;9.712;2023-06-22T03:16:51;12.45;;;11.35;;
55067;SDS011;40965;52.368;9.712;2023-06-22T03:19:17;10.55;;;9.55;;
55067;SDS011;40965;52.368;9.712;2023-06-22T03:21:44;14.15;;;10.38;;
55067;SDS011;40965;52.368;9.712;2023-06-22T03:24:11;12.18;;;10.18;;
55067;SDS011;40965;52.368;9.712;2023-06-22T03:26:37;11.95;;;10.70;;
55067;SDS011;40965;52.368;9.712;2023-06-22T03:29:04;12.20;;;10.45;;
55067;SDS011;40965;52.368;9.712;2023-06-22T03:31:30;11.93;;;10.70;;
55067;SDS011;40965;52.368;9.712;2023-06-22T03:33:57;12.48;;;11.18;;
55067;SDS011;40965;52.368;9.712;2023-06-22T03:36:23;11.35;;;10.25;;
55067;SDS011;40965;52.368;9.712;2023-06-22T03:38:50;11.63;;;10.50;;
55067;SDS011;40965;52.368;9.712;2023-06-22T03:41:17;12.02;;;10.93;;
55067;SDS011;40965;52.368;9.712;2023-06-22T03:43:43;12.73;;;11.32;;
55067;SDS011;40965;52.368;9.712;2023-06-22T03:46:10;11.40;;;10.20;;
55067;SDS011;40965;52.368;9.712;2023-06-22T03:48:37;11.57;;;10.48;;
55067;SDS011;40965;52.368;9.712;2023-06-22T03:51:04;12.18;;;10.95;;
55067;SDS011;40965;52.368;9.712;2023-06-22T03:53:31;11.38;;;10.20;;
55067;SDS011;40965;52.368;9.712;2023-06-22T03:55:57;12.00;;;10.48;;
55067;SDS011;40965;52.368;9.712;2023-06-22T03:58:24;11.07;;;10.00;;
55067;SDS011;40965;52.368;9.712;2023-06-22T04:00:51;12.60;;;10.63;;
55067;SDS011;40965;52.368;9.712;2023-06-22T04:03:19;11.57;;;10.32;;
55067;SDS011;40965;52.368;9.712;2023-06-22T04:05:45;11.90;;;10.77;;
55067;SDS011;40965;52.368;9.712;2023-06-22T04:08:12;11.35;;;9.38;;
55067;SDS011;40965;52.368;9.712;2023-06-22T04:10:40;12.25;;;10.25;;
55067;SDS011;40965;52.368;9.712;2023-06-22T04:13:06;11.70;;;9.93;;
55067;SDS011;40965;52.368;9.712;2023-06-22T04:15:33;11.75;;;9.35;;
55067;SDS011;40965;52.368;9.712;2023-06-22T04:17:59;10.05;;;9.13;;
55067;SDS011;40965;52.368;9.712;2023-06-22T04:20:26;13.10;;;11.45;;
55067;SDS011;40965;52.368;9.712;2023-06-22T04:22:53;11.32;;;10.32;;
55067;SDS011;40965;52.368;9.712;2023-06-22T04:25:20;11.15;;;10.05;;
55067;SDS011;40965;52.368;9.712;2023-06-22T04:27:48;11.48;;;10.27;;
55067;SDS011;40965;52.368;9.712;2023-06-22T04:30:14;14.23;;;10.48;;
55067;SDS011;40965;52.368;9.712;2023-06-22T04:32:42;11.57;;;10.13;;
55067;SDS011;40965;52.368;9.712;2023-06-22T04:35:09;11.23;;;10.18;;
55067;SDS011;40965;52.368;9.712;2023-06-22T04:37:36;12.48;;;10.82;;
55067;SDS011;40965;52.368;9.712;2023-06-22T04:40:04;10.98;;;9.98;;
55067;SDS011;40965;52.368;9.712;2023-06-22T04:42:33;12.02;;;10.68;;
55067;SDS011;40965;52.368;9.712;2023-06-22T04:45:01;11.90;;;10.68;;
55067;SDS011;40965;52.368;9.712;2023-06-22T04:47:28;13.77;;;10.38;;
55067;SDS011;40965;52.368;9.712;2023-06-22T04:49:54;11.15;;;9.68;;
55067;SDS011;40965;52.368;9.712;2023-06-22T04:52:21;12.20;;;10.45;;
55067;SDS011;40965;52.368;9.712;2023-06-22T04:54:49;10.50;;;9.32;;
55067;SDS011;40965;52.368;9.712;2023-06-22T04:57:20;12.32;;;11.13;;
55067;SDS011;40965;52.368;9.712;2023-06-22T05:00:00;11.13;;;10.02;;
55067;SDS011;40965;52.368;9.712;2023-06-22T05:02:37;10.23;;;9.20;;
55067;SDS011;40965;52.368;9.712;2023-06-22T05:05:06;11.70;;;10.50;;
55067;SDS011;40965;52.368;9.712;2023-06-22T05:07:38;11.32;;;9.63;;
55067;SDS011;40965;52.368;9.712;2023-06-22T05:10:09;12.65;;;11.10;;
55067;SDS011;40965;52.368;9.712;2023-06-22T05:12:37;11.25;;;10.05;;
55067;SDS011;40965;52.368;9.712;2023-06-22T05:15:06;12.77;;;9.77;;
55067;SDS011;40965;52.368;9.712;2023-06-22T05:17:36;9.65;;;8.68;;
55067;SDS011;40965;52.368;9.712;2023-06-22T05:20:07;12.40;;;9.43;;
55067;SDS011;40965;52.368;9.712;2023-06-22T05:22:36;13.93;;;11.40;;
55067;SDS011;40965;52.368;9.712;2023-06-22T05:25:02;15.02;;;10.93;;
55067;SDS011;40965;52.368;9.712;2023-06-22T05:27:29;11.45;;;9.52;;
55067;SDS011;40965;52.368;9.712;2023-06-22T05:29:56;13.15;;;10.88;;
55067;SDS011;40965;52.368;9.712;2023-06-22T05:32:22;14.88;;;10.45;;
55067;SDS011;40965;52.368;9.712;2023-06-22T05:34:49;15.60;;;9.52;;
55067;SDS011;40965;52.368;9.712;2023-06-22T05:37:15;10.02;;;9.05;;
55067;SDS011;40965;52.368;9.712;2023-06-22T05:39:42;14.15;;;10.63;;
55067;SDS011;40965;52.368;9.712;2023-06-22T05:42:08;9.20;;;8.27;;
55067;SDS011;40965;52.368;9.712;2023-06-22T05:44:35;13.35;;;9.48;;
55067;SDS011;40965;52.368;9.712;2023-06-22T05:47:02;12.45;;;10.32;;
55067;SDS011;40965;52.368;9.712;2023-06-22T05:49:29;12.95;;;9.60;;
55067;SDS011;40965;52.368;9.712;2023-06-22T05:51:58;11.38;;;9.32;;
55067;SDS011;40965;52.368;9.712;2023-06-22T05:54:29;11.82;;;10.07;;
55067;SDS011;40965;52.368;9.712;2023-06-22T05:56:56;10.80;;;8.27;;
55067;SDS011;40965;52.368;9.712;2023-06-22T05:59:24;11.02;;;8.48;;
55067;SDS011;40965;52.368;9.712;2023-06-22T06:01:50;10.15;;;7.00;;
55067;SDS011;40965;52.368;9.712;2023-06-22T06:04:17;13.05;;;8.82;;
55067;SDS011;40965;52.368;9.712;2023-06-22T06:06:44;9.68;;;8.40;;
55067;SDS011;40965;52.368;9.712;2023-06-22T06:09:13;12.10;;;7.90;;
55067;SDS011;40965;52.368;9.712;2023-06-22T06:11:40;13.38;;;8.93;;
55067;SDS011;40965;52.368;9.712;2023-06-22T06:14:07;8.98;;;7.85;;
55067;SDS011;40965;52.368;9.712;2023-06-22T06:16:33;9.23;;;6.50;;
55067;SDS011;40965;52.368;9.712;2023-06-22T06:19:00;9.35;;;7.60;;
55067;SDS011;40965;52.368;9.712;2023-06-22T06:21:27;10.27;;;7.65;;
55067;SDS011;40965;52.368;9.712;2023-06-22T06:23:53;13.93;;;8.27;;
55067;SDS011;40965;52.368;9.712;2023-06-22T06:26:20;8.30;;;7.47;;
55067;SDS011;40965;52.368;9.712;2023-06-22T06:28:55;9.52;;;7.88;;
55067;SDS011;40965;52.368;9.712;2023-06-22T06:31:22;9.73;;;6.70;;
55067;SDS011;40965;52.368;9.712;2023-06-22T06:33:49;9.23;;;6.40;;
55067;SDS011;40965;52.368;9.712;2023-06-22T06:36:16;10.82;;;7.03;;
55067;SDS011;40965;52.368;9.712;2023-06-22T06:38:43;6.78;;;6.18;;
55067;SDS011;40965;52.368;9.712;2023-06-22T06:41:12;10.52;;;6.35;;
55067;SDS011;40965;52.368;9.712;2023-06-22T06:43:42;9.27;;;6.13;;
55067;SDS011;40965;52.368;9.712;2023-06-22T06:46:10;6.78;;;6.18;;
55067;SDS011;40965;52.368;9.712;2023-06-22T06:48:39;6.55;;;5.82;;
55067;SDS011;40965;52.368;9.712;2023-06-22T06:51:06;10.52;;;6.30;;
55067;SDS011;40965;52.368;9.712;2023-06-22T06:53:34;11.00;;;7.47;;
55067;SDS011;40965;52.368;9.712;2023-06-22T06:56:02;10.50;;;6.43;;
55067;SDS011;40965;52.368;9.712;2023-06-22T06:58:30;7.80;;;6.10;;
55067;SDS011;40965;52.368;9.712;2023-06-22T07:00:57;7.43;;;6.20;;
55067;SDS011;40965;52.368;9.712;2023-06-22T07:03:24;10.30;;;6.25;;
55067;SDS011;40965;52.368;9.712;2023-06-22T07:05:50;8.30;;;5.90;;
55067;SDS011;40965;52.368;9.712;2023-06-22T07:08:17;6.70;;;5.93;;
55067;SDS011;40965;52.368;9.712;2023-06-22T07:10:43;10.18;;;5.97;;
55067;SDS011;40965;52.368;9.712;2023-06-22T07:13:10;6.07;;;5.40;;
55067;SDS011;40965;52.368;9.712;2023-06-22T07:15:37;6.20;;;5.70;;
55067;SDS011;40965;52.368;9.712;2023-06-22T07:18:04;8.13;;;5.35;;
55067;SDS011;40965;52.368;9.712;2023-06-22T07:20:30;6.38;;;5.22;;
55067;SDS011;40965;52.368;9.712;2023-06-22T07:22:57;6.50;;;5.18;;
55067;SDS011;40965;52.368;9.712;2023-06-22T07:25:24;6.80;;;4.95;;
55067;SDS011;40965;52.368;9.712;2023-06-22T07:27:58;6.10;;;5.25;;
55067;SDS011;40965;52.368;9.712;2023-06-22T07:30:27;6.75;;;5.78;;
55067;SDS011;40965;52.368;9.712;2023-06-22T07:32:55;8.23;;;6.40;;
55067;SDS011;40965;52.368;9.712;2023-06-22T07:35:22;6.25;;;5.60;;
55067;SDS011;40965;52.368;9.712;2023-06-22T07:37:49;6.43;;;5.78;;
55067;SDS011;40965;52.368;9.712;2023-06-22T07:40:15;6.47;;;5.88;;
55067;SDS011;40965;52.368;9.712;2023-06-22T07:42:42;5.75;;;5.00;;
55067;SDS011;40965;52.368;9.712;2023-06-22T07:45:09;6.20;;;5.60;;
55067;SDS011;40965;52.368;9.712;2023-06-22T07:47:35;8.40;;;6.65;;
55067;SDS011;40965;52.368;9.712;2023-06-22T07:50:04;7.03;;;6.03;;
55067;SDS011;40965;52.368;9.712;2023-06-22T07:52:31;8.57;;;6.40;;
55067;SDS011;40965;52.368;9.712;2023-06-22T07:54:58;6.90;;;6.28;;
55067;SDS011;40965;52.368;9.712;2023-06-22T07:57:25;6.65;;;5.97;;
55067;SDS011;40965;52.368;9.712;2023-06-22T07:59:58;6.25;;;5.70;;
55067;SDS011;40965;52.368;9.712;2023-06-22T08:02:26;7.22;;;6.47;;
55067;SDS011;40965;52.368;9.712;2023-06-22T08:04:53;6.68;;;6.03;;
55067;SDS011;40965;52.368;9.712;2023-06-22T08:07:19;6.45;;;5.85;;
55067;SDS011;40965;52.368;9.712;2023-06-22T08:09:46;6.85;;;6.15;;
55067;SDS011;40965;52.368;9.712;2023-06-22T08:12:14;6.22;;;5.63;;
55067;SDS011;40965;52.368;9.712;2023-06-22T08:14:42;6.57;;;5.97;;
55067;SDS011;40965;52.368;9.712;2023-06-22T08:17:09;7.88;;;6.90;;
55067;SDS011;40965;52.368;9.712;2023-06-22T08:19:36;6.20;;;5.57;;
55067;SDS011;40965;52.368;9.712;2023-06-22T08:22:04;7.53;;;6.45;;
55067;SDS011;40965;52.368;9.712;2023-06-22T08:24:31;8.75;;;7.55;;
55067;SDS011;40965;52.368;9.712;2023-06-22T08:26:58;7.07;;;5.95;;
55067;SDS011;40965;52.368;9.712;2023-06-22T08:29:25;6.43;;;5.78;;
55067;SDS011;40965;52.368;9.712;2023-06-22T08:31:51;7.47;;;6.65;;
55067;SDS011;40965;52.368;9.712;2023-06-22T08:34:18;7.63;;;6.93;;
55067;SDS011;40965;52.368;9.712;2023-06-22T08:36:47;6.72;;;6.00;;
55067;SDS011;40965;52.368;9.712;2023-06-22T08:39:18;8.48;;;6.22;;
55067;SDS011;40965;52.368;9.712;2023-06-22T08:41:46;6.85;;;6.32;;
55067;SDS011;40965;52.368;9.712;2023-06-22T08:44:14;7.13;;;6.53;;
55067;SDS011;40965;52.368;9.712;2023-06-22T08:46:45;8.18;;;7.20;;
55067;SDS011;40965;52.368;9.712;2023-06-22T08:49:12;7.32;;;6.57;;
55067;SDS011;40965;52.368;9.712;2023-06-22T08:51:40;8.07;;;7.35;;
55067;SDS011;40965;52.368;9.712;2023-06-22T08:54:09;7.10;;;6.45;;
55067;SDS011;40965;52.368;9.712;2023-06-22T08:56:35;9.40;;;6.03;;
55067;SDS011;40965;52.368;9.712;2023-06-22T08:59:02;8.30;;;7.53;;
55067;SDS011;40965;52.368;9.712;2023-06-22T09:01:29;8.88;;;6.97;;
55067;SDS011;40965;52.368;9.712;2023-06-22T09:03:55;9.88;;;7.43;;
55067;SDS011;40965;52.368;9.712;2023-06-22T09:06:25;8.75;;;6.25;;
55067;SDS011;40965;52.368;9.712;2023-06-22T09:08:52;7.75;;;6.35;;
55067;SDS011;40965;52.368;9.712;2023-06-22T09:11:18;6.50;;;6.00;;
55067;SDS011;40965;52.368;9.712;2023-06-22T09:13:45;9.18;;;7.07;;
55067;SDS011;40965;52.368;9.712;2023-06-22T09:16:12;9.32;;;6.90;;
55067;SDS011;40965;52.368;9.712;2023-06-22T09:18:38;7.47;;;6.82;;
55067;SDS011;40965;52.368;9.712;2023-06-22T09:21:06;8.23;;;7.43;;
55067;SDS011;40965;52.368;9.712;2023-06-22T09:23:32;8.85;;;8.00;;
55067;SDS011;40965;52.368;9.712;2023-06-22T09:25:59;9.00;;;7.25;;
55067;SDS011;40965;52.368;9.712;2023-06-22T09:28:25;10.98;;;8.02;;
55067;SDS011;40965;52.368;9.712;2023-06-22T09:30:52;8.90;;;7.97;;
55067;SDS011;40965;52.368;9.712;2023-06-22T09:33:23;9.35;;;8.02;;
55067;SDS011;40965;52.368;9.712;2023-06-22T09:35:53;6.82;;;6.18;;
55067;SDS011;40965;52.368;9.712;2023-06-22T09:38:21;8.05;;;7.35;;
55067;SDS011;40965;52.368;9.712;2023-06-22T09:40:47;8.85;;;7.95;;
55067;SDS011;40965;52.368;9.712;2023-06-22T09:43:14;9.23;;;8.43;;
55067;SDS011;40965;52.368;9.712;2023-06-22T09:45:40;13.65;;;9.55;;
55067;SDS011;40965;52.368;9.712;2023-06-22T09:48:08;9.77;;;8.77;;
55067;SDS011;40965;52.368;9.712;2023-06-22T09:50:35;10.15;;;8.52;;
55067;SDS011;40965;52.368;9.712;2023-06-22T09:53:02;12.65;;;8.77;;
55067;SDS011;40965;52.368;9.712;2023-06-22T09:55:33;9.32;;;8.50;;
55067;SDS011;40965;52.368;9.712;2023-06-22T09:57:59;10.32;;;9.32;;
55067;SDS011;40965;52.368;9.712;2023-06-22T10:00:27;11.95;;;10.38;;
55067;SDS011;40965;52.368;9.712;2023-06-22T10:02:54;12.02;;;9.43;;
55067;SDS011;40965;52.368;9.712;2023-06-22T10:05:22;10.68;;;9.63;;
55067;SDS011;40965;52.368;9.712;2023-06-22T10:07:49;12.45;;;10.70;;
55067;SDS011;40965;52.368;9.712;2023-06-22T10:10:16;11.40;;;10.10;;
55067;SDS011;40965;52.368;9.712;2023-06-22T10:12:45;14.50;;;9.30;;
55067;SDS011;40965;52.368;9.712;2023-06-22T10:15:15;13.60;;;10.77;;
55067;SDS011;40965;52.368;9.712;2023-06-22T10:17:41;11.40;;;10.40;;
55067;SDS011;40965;52.368;9.712;2023-06-22T10:20:08;11.77;;;10.55;;
55067;SDS011;40965;52.368;9.712;2023-06-22T10:22:44;11.68;;;10.57;;
55067;SDS011;40965;52.368;9.712;2023-06-22T10:25:11;12.60;;;11.30;;
55067;SDS011;40965;52.368;9.712;2023-06-22T10:27:39;13.80;;;12.32;;
55067;SDS011;40965;52.368;9.712;2023-06-22T10:30:06;15.35;;;12.85;;
55067;SDS011;40965;52.368;9.712;2023-06-22T10:32:35;13.35;;;10.90;;
55067;SDS011;40965;52.368;9.712;2023-06-22T10:35:05;13.32;;;11.93;;
55067;SDS011;40965;52.368;9.712;2023-06-22T10:37:33;13.15;;;11.32;;
55067;SDS011;40965;52.368;9.712;2023-06-22T10:39:59;12.23;;;11.02;;
55067;SDS011;40965;52.368;9.712;2023-06-22T10:42:26;12.25;;;11.00;;
55067;SDS011;40965;52.368;9.712;2023-06-22T10:44:53;16.17;;;10.50;;
55067;SDS011;40965;52.368;9.712;2023-06-22T10:47:19;14.32;;;11.95;;
55067;SDS011;40965;52.368;9.712;2023-06-22T10:49:46;13.23;;;11.43;;
55067;SDS011;40965;52.368;9.712;2023-06-22T10:52:13;11.50;;;10.30;;
55067;SDS011;40965;52.368;9.712;2023-06-22T10:54:41;12.48;;;11.18;;
55067;SDS011;40965;52.368;9.712;2023-06-22T10:57:07;10.77;;;9.68;;
55067;SDS011;40965;52.368;9.712;2023-06-22T10:59:34;11.48;;;10.38;;
55067;SDS011;40965;52.368;9.712;2023-06-22T11:02:00;12.05;;;10.93;;
55067;SDS011;40965;52.368;9.712;2023-06-22T11:04:27;11.77;;;10.50;;
55067;SDS011;40965;52.368;9.712;2023-06-22T11:06:54;10.80;;;9.70;;
55067;SDS011;40965;52.368;9.712;2023-06-22T11:09:22;12.48;;;11.18;;
55067;SDS011;40965;52.368;9.712;2023-06-22T11:11:49;9.55;;;8.70;;
55067;SDS011;40965;52.368;9.712;2023-06-22T11:14:18;12.98;;;11.68;;
55067;SDS011;40965;52.368;9.712;2023-06-22T11:16:45;13.25;;;10.88;;
55067;SDS011;40965;52.368;9.712;2023-06-22T11:19:12;11.43;;;10.43;;
55067;SDS011;40965;52.368;9.712;2023-06-22T11:21:39;10.88;;;9.95;;
55067;SDS011;40965;52.368;9.712;2023-06-22T11:24:05;11.45;;;10.40;;
55067;SDS011;40965;52.368;9.712;2023-06-22T11:26:35;11.98;;;10.60;;
55067;SDS011;40965;52.368;9.712;2023-06-22T11:29:02;10.60;;;9.75;;
55067;SDS011;40965;52.368;9.712;2023-06-22T11:31:30;11.15;;;9.73;;
55067;SDS011;40965;52.368;9.712;2023-06-22T11:33:58;12.27;;;11.05;;
55067;SDS011;40965;52.368;9.712;2023-06-22T11:36:24;12.07;;;10.95;;
55067;SDS011;40965;52.368;9.712;2023-06-22T11:38:54;11.00;;;9.80;;
55067;SDS011;40965;52.368;9.712;2023-06-22T11:41:21;13.65;;;9.45;;
55067;SDS011;40965;52.368;9.712;2023-06-22T11:43:47;11.40;;;10.32;;
55067;SDS011;40965;52.368;9.712;2023-06-22T11:46:14;11.65;;;10.32;;
55067;SDS011;40965;52.368;9.712;2023-06-22T11:48:40;14.77;;;10.85;;
55067;SDS011;40965;52.368;9.712;2023-06-22T11:51:07;13.10;;;11.80;;
55067;SDS011;40965;52.368;9.712;2023-06-22T11:53:34;12.10;;;10.80;;
55067;SDS011;40965;52.368;9.712;2023-06-22T11:56:01;10.05;;;9.25;;
55067;SDS011;40965;52.368;9.712;2023-06-22T11:58:27;11.60;;;10.60;;
55067;SDS011;40965;52.368;9.712;2023-06-22T12:00:54;14.32;;;10.77;;
55067;SDS011;40965;52.368;9.712;2023-06-22T12:03:21;12.23;;;10.07;;
55067;SDS011;40965;52.368;9.712;2023-06-22T12:05:47;10.55;;;9.63;;
55067;SDS011;40965;52.368;9.712;2023-06-22T12:08:14;11.10;;;9.73;;
55067;SDS011;40965;52.368;9.712;2023-06-22T12:10:41;10.50;;;9.68;;
55067;SDS011;40965;52.368;9.712;2023-06-22T12:13:07;9.45;;;8.65;;
55067;SDS011;40965;52.368;9.712;2023-06-22T12:15:34;12.93;;;10.43;;
55067;SDS011;40965;52.368;9.712;2023-06-22T12:18:01;9.95;;;8.98;;
55067;SDS011;40965;52.368;9.712;2023-06-22T12:20:27;10.05;;;9.02;;
55067;SDS011;40965;52.368;9.712;2023-06-22T12:22:54;9.18;;;8.35;;
55067;SDS011;40965;52.368;9.712;2023-06-22T12:25:23;8.68;;;7.95;;
55067;SDS011;40965;52.368;9.712;2023-06-22T12:27:49;8.90;;;8.15;;
55067;SDS011;40965;52.368;9.712;2023-06-22T12:30:16;13.55;;;8.18;;
55067;SDS011;40965;52.368;9.712;2023-06-22T12:32:43;11.15;;;8.52;;
55067;SDS011;40965;52.368;9.712;2023-06-22T12:35:09;11.77;;;10.63;;
55067;SDS011;40965;52.368;9.712;2023-06-22T12:37:40;9.70;;;8.90;;
55067;SDS011;40965;52.368;9.712;2023-06-22T12:40:08;10.88;;;9.80;;
55067;SDS011;40965;52.368;9.712;2023-06-22T12:42:36;11.15;;;10.15;;
55067;SDS011;40965;52.368;9.712;2023-06-22T12:45:04;9.32;;;8.57;;
55067;SDS011;40965;52.368;9.712;2023-06-22T12:47:33;9.98;;;9.18;;
55067;SDS011;40965;52.368;9.712;2023-06-22T12:50:00;10.57;;;9.57;;
55067;SDS011;40965;52.368;9.712;2023-06-22T12:52:27;10.70;;;9.65;;
55067;SDS011;40965;52.368;9.712;2023-06-22T12:54:56;10.43;;;9.45;;
55067;SDS011;40965;52.368;9.712;2023-06-22T12:57:23;10.80;;;9.80;;
55067;SDS011;40965;52.368;9.712;2023-06-22T12:59:50;10.23;;;9.25;;
55067;SDS011;40965;52.368;9.712;2023-06-22T13:02:17;10.07;;;9.18;;
55067;SDS011;40965;52.368;9.712;2023-06-22T13:04:43;10.90;;;9.80;;
55067;SDS011;40965;52.368;9.712;2023-06-22T13:07:11;13.18;;;10.43;;
55067;SDS011;40965;52.368;9.712;2023-06-22T13:09:37;10.88;;;9.88;;
55067;SDS011;40965;52.368;9.712;2023-06-22T13:12:05;11.27;;;10.07;;
55067;SDS011;40965;52.368;9.712;2023-06-22T13:14:32;10.73;;;9.82;;
55067;SDS011;40965;52.368;9.712;2023-06-22T13:17:01;13.10;;;11.80;;
55067;SDS011;40965;52.368;9.712;2023-06-22T13:19:28;12.77;;;11.48;;
55067;SDS011;40965;52.368;9.712;2023-06-22T13:21:57;13.02;;;11.73;;
55067;SDS011;40965;52.368;9.712;2023-06-22T13:24:25;11.00;;;9.93;;
55067;SDS011;40965;52.368;9.712;2023-06-22T13:26:52;10.68;;;9.70;;
55067;SDS011;40965;52.368;9.712;2023-06-22T13:29:21;11.07;;;10.13;;
55067;SDS011;40965;52.368;9.712;2023-06-22T13:31:48;12.52;;;11.23;;
55067;SDS011;40965;52.368;9.712;2023-06-22T13:34:15;13.05;;;11.57;;
55067;SDS011;40965;52.368;9.712;2023-06-22T13:36:42;11.05;;;9.93;;
55067;SDS011;40965;52.368;9.712;2023-06-22T13:39:09;12.13;;;11.13;;
55067;SDS011;40965;52.368;9.712;2023-06-22T13:41:35;10.98;;;9.95;;
55067;SDS011;40965;52.368;9.712;2023-06-22T13:44:02;12.82;;;11.63;;
55067;SDS011;40965;52.368;9.712;2023-06-22T13:46:30;12.13;;;11.02;;
55067;SDS011;40965;52.368;9.712;2023-06-22T13:48:57;11.80;;;10.70;;
55067;SDS011;40965;52.368;9.712;2023-06-22T13:51:24;12.00;;;10.90;;
55067;SDS011;40965;52.368;9.712;2023-06-22T13:53:50;12.05;;;10.98;;
55067;SDS011;40965;52.368;9.712;2023-06-22T13:56:17;12.02;;;10.93;;
55067;SDS011;40965;52.368;9.712;2023-06-22T13:58:44;11.00;;;9.93;;
55067;SDS011;40965;52.368;9.712;2023-06-22T14:01:10;11.25;;;10.15;;
55067;SDS011;40965;52.368;9.712;2023-06-22T14:03:37;11.48;;;10.38;;
55067;SDS011;40965;52.368;9.712;2023-06-22T14:06:04;12.50;;;11.25;;
55067;SDS011;40965;52.368;9.712;2023-06-22T14:08:31;12.88;;;11.50;;
55067;SDS011;40965;52.368;9.712;2023-06-22T14:10:58;12.60;;;11.45;;
55067;SDS011;40965;52.368;9.712;2023-06-22T14:13:27;13.10;;;10.50;;
55067;SDS011;40965;52.368;9.712;2023-06-22T14:15:54;12.57;;;11.45;;
55067;SDS011;40965;52.368;9.712;2023-06-22T14:18:21;14.07;;;12.63;;
55067;SDS011;40965;52.368;9.712;2023-06-22T14:20:48;14.27;;;12.90;;
55067;SDS011;40965;52.368;9.712;2023-06-22T14:23:15;13.43;;;12.02;;
55067;SDS011;40965;52.368;9.712;2023-06-22T14:25:42;14.00;;;12.60;;
55067;SDS011;40965;52.368;9.712;2023-06-22T14:28:12;15.05;;;13.55;;
55067;SDS011;40965;52.368;9.712;2023-06-22T14:30:38;15.85;;;14.20;;
55067;SDS011;40965;52.368;9.712;2023-06-22T14:33:05;17.20;;;15.38;;
55067;SDS011;40965;52.368;9.712;2023-06-22T14:35:32;14.65;;;13.35;;
55067;SDS011;40965;52.368;9.712;2023-06-22T14:37:59;15.02;;;13.57;;
55067;SDS011;40965;52.368;9.712;2023-06-22T14:40:25;13.48;;;12.15;;
55067;SDS011;40965;52.368;9.712;2023-06-22T14:42:52;12.77;;;11.68;;
55067;SDS011;40965;52.368;9.712;2023-06-22T14:45:21;12.63;;;11.52;;
55067;SDS011;40965;52.368;9.712;2023-06-22T14:47:49;13.93;;;12.50;;
55067;SDS011;40965;52.368;9.712;2023-06-22T14:50:16;12.48;;;11.38;;
55067;SDS011;40965;52.368;9.712;2023-06-22T14:52:43;13.57;;;12.25;;